Time;durP1;ratioP1;P1;durP2;ratioP2;P2;SDS_P1;SDS_P2;PMS_P1;PMS_P2;Temp;Humidity;BMP_temperature;BMP_pressure;BME280_temperature;BME280_humidity;BME280_pressure;Samples;Min_cycle;Max_cycle;Signal;HPM_P1;HPM_P2
2021/08/12 00:00:39;;;;;;;19.17;6.65;;;;;;;21.24;70.23;100712.36;1719563;81;21088;-60
2021/08/12 00:03:06;;;;;;;21.23;6.80;;;;;;;21.23;70.28;100722.41;1737241;79;21489;-60
2021/08/12 00:05:33;;;;;;;13.05;6.42;;;;;;;21.24;70.24;100724.63;1764154;79;21059;-60
2021/08/12 00:08:00;;;;;;;18.57;6.40;;;;;;;21.23;70.23;100720.16;1762963;78;21136;-59
2021/08/12 00:10:27;;;;;;;10.25;5.45;;;;;;;21.20;70.28;100723.14;1755873;79;21528;-60
2021/08/12 00:12:54;;;;;;;12.90;5.70;;;;;;;21.17;70.46;100725.61;1763789;79;20996;-59
2021/08/12 00:15:21;;;;;;;13.90;6.47;;;;;;;21.15;70.59;100724.39;1765442;79;21674;-59
2021/08/12 00:17:48;;;;;;;11.60;5.78;;;;;;;21.15;70.67;100727.11;1703585;82;21073;-60
2021/08/12 00:20:15;;;;;;;13.78;6.58;;;;;;;21.13;70.85;100727.73;1764924;79;21158;-60
2021/08/12 00:22:41;;;;;;;9.68;6.33;;;;;;;21.14;70.93;100732.67;1763593;79;21070;-60
2021/08/12 00:25:09;;;;;;;24.85;6.72;;;;;;;21.09;71.12;100722.64;1730171;81;21017;-60
2021/08/12 00:27:39;;;;;;;20.00;5.83;;;;;;;21.02;71.44;100727.71;1722214;81;21408;-60
2021/08/12 00:30:09;;;;;;;24.87;6.45;;;;;;;20.97;71.87;100727.22;1704758;81;21151;-59
2021/08/12 00:32:36;;;;;;;14.45;6.12;;;;;;;20.93;72.17;100726.58;1760621;79;21534;-59
2021/08/12 00:35:03;;;;;;;17.12;6.12;;;;;;;20.92;72.57;100743.92;1763884;79;21090;-60
2021/08/12 00:37:31;;;;;;;18.10;6.22;;;;;;;20.90;72.73;100740.45;1705037;82;21497;-65
2021/08/12 00:39:59;;;;;;;17.02;6.47;;;;;;;20.88;73.09;100743.29;1768955;80;21090;-67
2021/08/12 00:42:29;;;;;;;15.32;6.45;;;;;;;20.86;73.16;100749.36;1770967;81;21113;-68
2021/08/12 00:44:56;;;;;;;10.85;6.35;;;;;;;20.85;73.39;100748.14;1771806;81;21759;-68
2021/08/12 00:47:23;;;;;;;21.85;6.50;;;;;;;20.83;73.69;100748.24;1771320;81;21050;-69
2021/08/12 00:49:51;;;;;;;20.05;6.37;;;;;;;20.82;73.80;100747.88;1767162;79;21479;-61
2021/08/12 00:52:18;;;;;;;18.40;6.45;;;;;;;20.80;74.05;100747.64;1731295;81;21051;-61
2021/08/12 00:54:47;;;;;;;12.50;6.65;;;;;;;20.79;74.30;100746.72;1723432;82;21095;-60
2021/08/12 00:57:15;;;;;;;15.03;6.70;;;;;;;20.79;74.55;100750.80;1749027;81;21132;-60
2021/08/12 00:59:43;;;;;;;13.68;5.90;;;;;;;20.77;74.96;100737.80;1766148;79;21720;-66
2021/08/12 01:02:10;;;;;;;15.30;6.53;;;;;;;20.79;75.00;100734.46;1774182;79;21019;-68
2021/08/12 01:04:44;;;;;;;14.75;6.37;;;;;;;20.81;75.05;100732.52;1758405;81;21027;-60
2021/08/12 01:07:28;;;;;;;16.20;7.42;;;;;;;20.81;75.17;100742.05;1765258;79;21490;-60
2021/08/12 01:10:22;;;;;;;13.18;6.92;;;;;;;20.81;75.27;100746.14;1740921;81;21160;-60
2021/08/12 01:13:03;;;;;;;13.60;7.20;;;;;;;20.80;75.36;100742.19;1763194;80;21129;-61
2021/08/12 01:15:41;;;;;;;19.05;6.92;;;;;;;20.74;75.48;100745.70;1771427;80;21500;-60
2021/08/12 01:18:15;;;;;;;17.27;6.83;;;;;;;20.69;75.93;100741.63;1744408;81;21060;-60
2021/08/12 01:21:26;;;;;;;23.32;7.62;;;;;;;20.63;76.35;100748.42;1737024;81;21095;-60
2021/08/12 01:23:56;;;;;;;20.88;7.20;;;;;;;20.60;76.94;100751.39;1764860;79;21135;-60
2021/08/12 01:26:23;;;;;;;15.70;7.05;;;;;;;20.59;77.16;100757.83;1759069;80;21153;-60
2021/08/12 01:28:51;;;;;;;21.30;7.35;;;;;;;20.59;77.39;100755.09;1742234;81;21071;-60
2021/08/12 01:31:58;;;;;;;17.80;7.45;;;;;;;20.61;77.51;100760.78;1711743;80;21082;-61
2021/08/12 01:35:00;;;;;;;14.63;8.28;;;;;;;20.65;77.64;100755.09;1744784;81;21079;-61
2021/08/12 01:37:36;;;;;;;12.47;7.83;;;;;;;20.64;77.57;100747.91;1762544;79;21853;-61
2021/08/12 01:40:10;;;;;;;14.87;7.22;;;;;;;20.63;77.69;100759.80;1769654;79;21012;-61
2021/08/12 01:42:38;;;;;;;15.35;7.75;;;;;;;20.58;77.88;100758.81;1755465;79;21089;-61
2021/08/12 01:45:06;;;;;;;13.58;7.20;;;;;;;20.53;78.16;100750.98;1738113;79;21078;-61
2021/08/12 01:47:34;;;;;;;15.30;7.62;;;;;;;20.48;78.40;100755.93;1754998;79;21090;-61
2021/08/12 01:50:07;;;;;;;20.35;7.50;;;;;;;20.44;78.66;100763.93;1733482;81;21686;-61
2021/08/12 01:52:35;;;;;;;15.15;8.25;;;;;;;20.39;78.82;100753.89;1758772;79;21069;-60
2021/08/12 01:55:04;;;;;;;12.13;7.37;;;;;;;20.37;79.03;100754.51;1777179;79;21058;-61
2021/08/12 01:57:32;;;;;;;10.13;7.50;;;;;;;20.33;79.13;100752.03;1757045;79;21133;-61
2021/08/12 02:00:00;;;;;;;18.52;8.45;;;;;;;20.30;79.36;100760.43;1760693;79;21038;-60
2021/08/12 02:02:28;;;;;;;16.02;7.80;;;;;;;20.27;79.71;100767.47;1754868;79;21127;-60
2021/08/12 02:04:55;;;;;;;13.43;8.28;;;;;;;20.25;79.91;100765.37;1755840;79;21049;-61
2021/08/12 02:07:23;;;;;;;15.83;7.75;;;;;;;20.23;80.03;100761.89;1763054;79;21570;-61
2021/08/12 02:09:52;;;;;;;13.43;7.37;;;;;;;20.18;80.20;100770.40;1754948;79;21561;-60
2021/08/12 02:12:19;;;;;;;15.35;8.15;;;;;;;20.15;80.46;100769.75;1767771;79;22304;-61
2021/08/12 02:14:46;;;;;;;12.88;7.97;;;;;;;20.12;80.57;100778.15;1760941;78;21914;-61
2021/08/12 02:17:13;;;;;;;13.70;7.78;;;;;;;20.09;80.99;100781.11;1762505;79;21042;-61
2021/08/12 02:19:41;;;;;;;15.25;7.92;;;;;;;20.08;81.09;100783.45;1757705;81;21036;-62
2021/08/12 02:22:19;;;;;;;18.17;7.90;;;;;;;20.07;81.14;100777.63;1758647;79;21034;-61
2021/08/12 02:25:05;;;;;;;24.57;9.88;;;;;;;20.06;81.24;100775.90;1744978;79;21528;-61
2021/08/12 02:27:31;;;;;;;35.45;9.55;;;;;;;20.04;81.34;100771.44;1742712;80;21194;-60
2021/08/12 02:29:58;;;;;;;27.40;8.78;;;;;;;20.02;81.44;100782.05;1745141;80;21497;-60
2021/08/12 02:32:29;;;;;;;16.48;8.18;;;;;;;20.00;81.47;100773.98;1717686;81;21091;-61
2021/08/12 02:35:10;;;;;;;21.45;8.80;;;;;;;19.99;81.62;100768.17;1764512;79;21970;-61
2021/08/12 02:37:37;;;;;;;17.32;8.55;;;;;;;20.00;81.52;100775.86;1760205;79;21574;-61
2021/08/12 02:40:07;;;;;;;13.62;8.43;;;;;;;19.96;81.60;100775.20;1751871;79;21824;-62
2021/08/12 02:42:37;;;;;;;15.50;8.43;;;;;;;19.92;81.76;100772.85;1756997;79;21128;-62
2021/08/12 02:45:05;;;;;;;14.58;8.28;;;;;;;19.86;81.89;100779.58;1753031;79;21494;-62
2021/08/12 02:47:32;;;;;;;21.07;9.40;;;;;;;19.84;81.99;100782.39;1759705;79;21039;-62
2021/08/12 02:49:59;;;;;;;31.62;9.63;;;;;;;19.84;81.99;100784.27;1706571;81;21067;-62
2021/08/12 02:52:27;;;;;;;24.10;8.98;;;;;;;19.82;82.08;100786.23;1759853;79;22525;-62
2021/08/12 02:54:54;;;;;;;21.57;9.08;;;;;;;19.82;82.14;100780.79;1751973;79;21482;-62
2021/08/12 02:57:21;;;;;;;17.20;8.98;;;;;;;19.81;82.22;100793.51;1747428;81;21060;-61
2021/08/12 02:59:48;;;;;;;17.05;8.85;;;;;;;19.81;82.19;100785.34;1759491;80;21087;-62
2021/08/12 03:02:18;;;;;;;22.15;8.73;;;;;;;19.81;82.28;100794.02;1752210;81;21803;-61
2021/08/12 03:04:45;;;;;;;17.70;8.50;;;;;;;19.80;82.37;100786.84;1752712;79;21130;-61
2021/08/12 03:07:13;;;;;;;20.62;9.18;;;;;;;19.80;82.34;100797.21;1758541;79;21020;-61
2021/08/12 03:12:21;;;;;;;27.70;8.95;;;;;;;19.84;82.32;100800.59;1761820;79;21252;-61
2021/08/12 03:14:49;;;;;;;21.07;8.43;;;;;;;19.87;82.07;100805.80;1747697;81;21309;-62
2021/08/12 03:17:17;;;;;;;31.10;8.73;;;;;;;19.93;81.79;100797.20;1754494;81;21458;-61
2021/08/12 03:19:44;;;;;;;30.40;8.83;;;;;;;19.98;81.59;100799.59;1751197;81;21036;-60
2021/08/12 03:22:13;;;;;;;25.62;8.45;;;;;;;20.03;81.35;100802.36;1763301;79;21168;-60
2021/08/12 03:24:44;;;;;;;25.82;9.38;;;;;;;20.10;81.13;100803.25;1759636;79;21678;-60
2021/08/12 03:27:12;;;;;;;24.95;8.78;;;;;;;20.17;80.70;100805.88;1756204;79;21980;-60
2021/08/12 03:29:40;;;;;;;22.87;8.80;;;;;;;20.20;80.37;100808.37;1755094;79;21243;-61
2021/08/12 03:32:07;;;;;;;34.88;9.55;;;;;;;20.21;80.12;100810.11;1757600;79;21546;-60
2021/08/12 03:34:36;;;;;;;22.02;8.73;;;;;;;20.24;80.07;100808.55;1736120;79;21122;-60
2021/08/12 03:37:03;;;;;;;33.88;8.95;;;;;;;20.29;79.79;100807.70;1752150;79;21434;-59
2021/08/12 03:39:32;;;;;;;32.67;8.65;;;;;;;20.37;79.45;100814.41;1761621;79;21047;-60
2021/08/12 03:41:59;;;;;;;24.82;9.80;;;;;;;20.43;79.20;100813.45;1759181;79;21114;-61
2021/08/12 03:44:27;;;;;;;35.98;8.50;;;;;;;20.49;78.60;100821.66;1761701;79;21066;-60
2021/08/12 03:46:54;;;;;;;26.73;10.00;;;;;;;20.55;78.44;100825.27;1754306;79;21059;-60
2021/08/12 03:49:22;;;;;;;17.77;8.60;;;;;;;20.61;77.83;100821.22;1759851;79;21071;-60
2021/08/12 03:51:49;;;;;;;25.32;8.95;;;;;;;20.66;77.71;100824.92;1769971;79;21102;-60
2021/08/12 03:54:16;;;;;;;19.98;8.43;;;;;;;20.73;77.32;100823.48;1765551;79;21095;-60
2021/08/12 03:56:43;;;;;;;14.53;8.90;;;;;;;20.78;77.20;100823.99;1748395;81;21075;-60
2021/08/12 03:59:09;;;;;;;22.73;8.95;;;;;;;20.85;76.99;100829.36;1762830;79;21603;-60
2021/08/12 04:01:37;;;;;;;28.32;8.63;;;;;;;20.92;76.80;100836.58;1765760;79;21075;-61
2021/08/12 04:04:06;;;;;;;16.67;9.25;;;;;;;21.01;76.42;100845.42;1754463;79;21063;-61
2021/08/12 04:06:33;;;;;;;22.00;8.93;;;;;;;21.08;76.09;100845.78;1752603;81;22308;-60
2021/08/12 04:09:02;;;;;;;18.07;9.25;;;;;;;21.16;75.86;100854.25;1753348;79;20988;-61
2021/08/12 04:11:29;;;;;;;19.73;9.30;;;;;;;21.22;75.15;100857.47;1775876;79;20999;-68
2021/08/12 04:13:56;;;;;;;19.92;8.68;;;;;;;21.23;75.04;100853.75;1758620;81;21032;-68
2021/08/12 04:16:23;;;;;;;28.17;9.25;;;;;;;21.30;74.74;100860.45;1766586;81;20984;-68
2021/08/12 04:18:50;;;;;;;29.77;9.18;;;;;;;21.38;74.47;100858.48;1766954;81;21112;-69
2021/08/12 04:21:17;;;;;;;29.48;8.33;;;;;;;21.46;73.87;100860.98;1766203;81;21048;-68
2021/08/12 04:23:44;;;;;;;19.57;8.73;;;;;;;21.56;73.36;100860.27;1740997;81;21043;-69
2021/08/12 04:26:11;;;;;;;26.02;9.20;;;;;;;21.63;72.62;100866.95;1734793;81;21067;-68
2021/08/12 04:28:39;;;;;;;29.32;9.15;;;;;;;21.70;72.69;100868.22;1751814;81;21015;-68
2021/08/12 04:31:05;;;;;;;28.07;9.18;;;;;;;21.79;72.62;100867.97;1762039;79;21751;-68
2021/08/12 04:33:32;;;;;;;30.75;8.98;;;;;;;21.89;72.32;100864.00;1741512;81;21077;-69
2021/08/12 04:36:00;;;;;;;26.35;9.43;;;;;;;22.00;72.22;100866.73;1759094;81;21087;-68
2021/08/12 04:38:27;;;;;;;21.87;8.58;;;;;;;22.14;71.74;100872.91;1750238;81;21003;-68
2021/08/12 04:40:56;;;;;;;22.98;9.33;;;;;;;22.25;70.89;100864.71;1750052;80;21386;-68
2021/08/12 04:43:23;;;;;;;26.35;8.63;;;;;;;22.33;70.78;100870.39;1752515;79;21096;-69
2021/08/12 04:45:50;;;;;;;24.10;9.08;;;;;;;22.44;70.01;100872.73;1751898;79;20996;-68
2021/08/12 04:48:19;;;;;;;26.97;8.48;;;;;;;22.54;69.22;100868.73;1749525;79;21099;-69
2021/08/12 04:50:46;;;;;;;28.83;7.65;;;;;;;22.60;68.36;100873.71;1753250;81;21052;-70
2021/08/12 04:53:41;;;;;;;18.00;8.20;;;;;;;22.68;68.50;100881.27;1752384;81;21401;-68
2021/08/12 04:56:08;;;;;;;23.47;12.05;;;;;;;22.81;68.51;100876.47;1764064;79;21564;-68
2021/08/12 04:58:35;;;;;;;24.65;15.45;;;;;;;22.94;66.83;100879.53;1746655;79;21028;-61
2021/08/12 05:01:02;;;;;;;33.80;18.37;;;;;;;23.02;66.84;100875.63;1739203;79;21048;-61
2021/08/12 05:03:29;;;;;;;41.40;23.75;;;;;;;23.18;65.96;100884.25;1754976;79;21054;-61
2021/08/12 05:06:04;;;;;;;60.98;37.63;;;;;;;23.32;65.97;100875.36;1748192;79;21121;-60
2021/08/12 05:08:31;;;;;;;37.28;25.62;;;;;;;23.50;64.73;100891.16;1733014;81;22200;-60
2021/08/12 05:10:58;;;;;;;52.08;35.83;;;;;;;23.64;63.23;100885.84;1767656;80;21021;-60
2021/08/12 05:13:29;;;;;;;50.83;38.58;;;;;;;23.74;61.75;100896.34;1751416;80;21060;-66
2021/08/12 05:15:56;;;;;;;55.70;39.18;;;;;;;23.80;61.47;100896.31;1746089;80;21059;-67
2021/08/12 05:18:23;;;;;;;28.90;18.50;;;;;;;23.87;60.79;100905.21;1765081;80;21074;-67
2021/08/12 05:20:50;;;;;;;40.58;26.80;;;;;;;23.96;60.66;100902.13;1752859;81;21134;-67
2021/08/12 05:23:17;;;;;;;50.52;36.35;;;;;;;24.03;59.68;100914.31;1753754;80;21106;-61
2021/08/12 05:25:44;;;;;;;64.58;43.13;;;;;;;24.09;59.01;100912.02;1745866;80;21090;-61
2021/08/12 05:28:12;;;;;;;48.83;33.05;;;;;;;24.15;58.22;100914.20;1722417;81;21084;-60
2021/08/12 05:30:40;;;;;;;33.63;20.37;;;;;;;24.23;58.67;100921.23;1764228;79;21079;-60
2021/08/12 05:35:49;;;;;;;61.13;41.37;;;;;;;24.46;56.63;100914.16;1737874;81;21618;-60
2021/08/12 05:38:18;;;;;;;42.33;29.23;;;;;;;24.50;56.32;100919.70;1758512;79;21082;-60
2021/08/12 05:40:46;;;;;;;59.10;36.17;;;;;;;24.51;55.26;100937.00;1766793;79;21670;-61
2021/08/12 05:43:13;;;;;;;42.15;23.25;;;;;;;24.49;55.94;100913.87;1740474;81;21029;-61
2021/08/12 05:45:40;;;;;;;44.33;24.10;;;;;;;24.54;56.05;100914.30;1735945;81;22164;-61
2021/08/12 05:48:07;;;;;;;37.17;22.67;;;;;;;24.66;55.97;100908.71;1739650;81;20994;-61
2021/08/12 05:50:34;;;;;;;33.92;20.05;;;;;;;24.80;55.44;100906.93;1735766;81;21055;-61
2021/08/12 05:53:04;;;;;;;27.25;8.80;;;;;;;24.94;53.93;100933.58;1740053;81;21099;-60
2021/08/12 05:55:33;;;;;;;30.77;14.98;;;;;;;25.01;53.34;100921.02;1766523;80;21063;-61
2021/08/12 05:58:00;;;;;;;17.65;8.78;;;;;;;25.06;53.08;100910.47;1772165;80;21095;-68
2021/08/12 06:00:27;;;;;;;19.07;7.00;;;;;;;25.12;52.06;100926.36;1770287;80;21031;-68
2021/08/12 06:02:55;;;;;;;18.35;6.95;;;;;;;25.08;51.72;100934.50;1766385;80;21016;-68
2021/08/12 06:05:24;;;;;;;14.28;6.53;;;;;;;25.04;52.04;100935.80;1744819;81;21060;-68
2021/08/12 06:07:53;;;;;;;14.13;7.62;;;;;;;25.07;52.38;100933.28;1763822;79;20980;-67
2021/08/12 06:10:22;;;;;;;10.53;6.08;;;;;;;25.11;51.96;100938.35;1780833;79;21554;-68
2021/08/12 06:12:49;;;;;;;12.70;6.45;;;;;;;25.10;51.91;100944.84;1781879;79;20977;-68
2021/08/12 06:15:18;;;;;;;17.87;7.62;;;;;;;25.11;52.94;100931.98;1776271;79;21004;-67
2021/08/12 06:17:45;;;;;;;16.23;6.55;;;;;;;25.15;52.43;100957.62;1781298;79;21044;-67
2021/08/12 06:20:13;;;;;;;17.55;7.03;;;;;;;25.19;52.22;100945.83;1774055;79;21177;-67
2021/08/12 06:22:41;;;;;;;13.38;5.60;;;;;;;25.26;52.20;100943.38;1774029;79;21039;-67
2021/08/12 06:25:11;;;;;;;11.28;6.20;;;;;;;25.30;50.45;100955.78;1778497;79;21533;-68
2021/08/12 06:27:39;;;;;;;21.15;6.80;;;;;;;25.31;51.33;100939.68;1772105;79;21055;-68
2021/08/12 06:30:09;;;;;;;15.72;7.33;;;;;;;25.41;52.07;100933.69;1743606;81;21066;-67
2021/08/12 06:32:37;;;;;;;24.05;12.35;;;;;;;25.61;51.21;100950.16;1772601;79;21031;-68
2021/08/12 06:35:11;;;;;;;20.90;10.78;;;;;;;25.74;50.56;100945.19;1775604;79;21141;-68
2021/08/12 06:37:48;;;;;;;21.10;10.28;;;;;;;25.84;49.94;100941.57;1742841;81;21060;-68
2021/08/12 06:40:19;;;;;;;22.77;13.53;;;;;;;25.93;49.91;100961.26;1776899;79;21557;-68
2021/08/12 06:42:46;;;;;;;20.12;8.58;;;;;;;25.98;49.85;100945.22;1753588;81;21919;-68
2021/08/12 06:45:14;;;;;;;28.35;17.07;;;;;;;26.07;49.16;100953.56;1775818;79;21041;-67
2021/08/12 06:47:42;;;;;;;28.30;18.57;;;;;;;26.14;49.52;100945.06;1727781;81;22060;-67
2021/08/12 06:50:10;;;;;;;43.08;25.45;;;;;;;26.27;49.79;100949.74;1761879;81;21048;-66
2021/08/12 06:52:39;;;;;;;20.75;11.48;;;;;;;26.31;48.95;100955.28;1749685;81;21054;-66
2021/08/12 06:55:35;;;;;;;33.30;19.20;;;;;;;26.31;48.51;100952.53;1734642;81;21625;-67
2021/08/12 06:58:02;;;;;;;14.38;8.43;;;;;;;26.35;48.35;100963.22;1735434;81;21070;-67
2021/08/12 07:00:29;;;;;;;19.25;9.70;;;;;;;26.41;48.62;100962.59;1769853;79;21107;-68
2021/08/12 07:02:56;;;;;;;21.60;12.28;;;;;;;26.50;48.94;100960.33;1779157;79;20975;-67
2021/08/12 07:05:23;;;;;;;16.93;7.30;;;;;;;26.57;48.80;100964.70;1774541;79;21023;-68
2021/08/12 07:07:51;;;;;;;15.58;7.37;;;;;;;26.60;47.79;100967.98;1773820;79;21777;-68
2021/08/12 07:12:48;;;;;;;27.27;16.10;;;;;;;26.65;48.82;100968.06;1744882;80;21203;-69
2021/08/12 07:15:17;;;;;;;38.95;25.15;;;;;;;26.82;48.79;100963.08;1767040;80;21466;-71
2021/08/12 07:17:47;;;;;;;18.15;13.10;;;;;;;26.96;47.33;100975.98;1774687;79;21079;-69
2021/08/12 07:20:15;;;;;;;25.32;17.65;;;;;;;26.92;46.39;100985.57;1749784;81;21046;-68
2021/08/12 07:22:43;;;;;;;36.53;22.52;;;;;;;26.84;46.55;100977.53;1739057;81;21631;-68
2021/08/12 07:25:11;;;;;;;37.23;22.25;;;;;;;26.83;47.20;100963.42;1745454;81;21559;-69
2021/08/12 07:27:38;;;;;;;26.05;16.85;;;;;;;26.83;47.47;100953.80;1748313;81;21110;-67
2021/08/12 07:30:07;;;;;;;18.37;8.70;;;;;;;26.88;48.12;100963.00;1779353;79;20992;-67
2021/08/12 07:32:34;;;;;;;25.05;11.38;;;;;;;27.00;48.04;100967.77;1775387;79;21064;-67
2021/08/12 07:35:02;;;;;;;25.02;14.58;;;;;;;27.08;47.56;100967.86;1779233;79;21065;-70
2021/08/12 07:37:28;;;;;;;23.62;16.52;;;;;;;27.17;47.71;100960.52;1774351;79;22187;-68
2021/08/12 07:39:57;;;;;;;26.70;18.95;;;;;;;27.28;47.51;100963.05;1779313;79;21643;-68
2021/08/12 07:42:26;;;;;;;11.68;7.35;;;;;;;27.38;47.79;100952.44;1776704;79;20980;-70
2021/08/12 07:44:55;;;;;;;33.65;23.02;;;;;;;27.42;47.23;100960.76;1774636;79;21023;-70
2021/08/12 07:47:22;;;;;;;19.30;10.98;;;;;;;27.42;47.38;100966.27;1761173;80;21211;-69
2021/08/12 07:49:50;;;;;;;10.93;6.65;;;;;;;27.42;46.46;100968.48;1775093;79;21200;-69
2021/08/12 07:52:17;;;;;;;11.35;5.70;;;;;;;27.37;46.22;100965.36;1770361;79;21035;-69
2021/08/12 07:54:48;;;;;;;37.78;23.92;;;;;;;27.29;46.44;100990.03;1734770;81;21390;-69
2021/08/12 07:57:15;;;;;;;25.00;17.82;;;;;;;27.24;46.45;101007.55;1768733;79;21027;-70
2021/08/12 07:59:42;;;;;;;29.67;16.02;;;;;;;27.15;45.59;100988.21;1768916;79;21153;-68
2021/08/12 08:02:10;;;;;;;16.50;9.85;;;;;;;27.14;46.06;100971.35;1768991;79;21991;-68
2021/08/12 08:04:37;;;;;;;26.62;9.40;;;;;;;27.17;45.83;100973.78;1771555;79;21083;-68
2021/08/12 08:07:04;;;;;;;8.93;5.75;;;;;;;27.23;45.73;100979.67;1772163;79;21450;-68
2021/08/12 08:09:31;;;;;;;18.10;12.88;;;;;;;27.30;45.04;100982.13;1763100;79;21128;-68
2021/08/12 08:11:59;;;;;;;30.05;21.23;;;;;;;27.29;45.06;100995.05;1770065;79;21489;-67
2021/08/12 08:14:27;;;;;;;18.23;13.18;;;;;;;27.35;45.21;100970.66;1773863;79;21130;-67
2021/08/12 08:16:55;;;;;;;16.02;7.62;;;;;;;27.43;44.51;100985.88;1766916;79;21079;-66
2021/08/12 08:19:24;;;;;;;25.77;11.65;;;;;;;27.42;44.43;100979.50;1765632;79;21498;-66
2021/08/12 08:21:53;;;;;;;34.05;20.60;;;;;;;27.36;44.81;100974.64;1769938;79;21062;-69
2021/08/12 08:24:20;;;;;;;35.63;21.05;;;;;;;27.30;44.42;101006.91;1736168;81;21076;-67
2021/08/12 08:26:49;;;;;;;21.07;8.93;;;;;;;27.27;44.99;100965.94;1772816;79;22641;-68
2021/08/12 08:29:18;;;;;;;12.80;6.90;;;;;;;27.28;45.20;101006.20;1778746;79;20992;-68
2021/08/12 08:31:46;;;;;;;16.90;5.47;;;;;;;27.27;45.87;100975.08;1784765;79;20960;-69
2021/08/12 08:34:13;;;;;;;22.62;5.62;;;;;;;27.26;46.13;100988.98;1783511;79;21142;-66
2021/08/12 08:36:40;;;;;;;8.20;4.65;;;;;;;27.20;45.78;100970.36;1769070;79;21058;-67
2021/08/12 08:39:09;;;;;;;20.48;6.22;;;;;;;27.15;45.17;100998.34;1741660;81;21092;-68
2021/08/12 08:41:38;;;;;;;15.53;5.40;;;;;;;27.09;45.88;100987.97;1778655;79;21142;-67
2021/08/12 08:44:07;;;;;;;16.57;6.83;;;;;;;27.08;45.78;100976.12;1746146;81;20988;-68
2021/08/12 08:46:35;;;;;;;15.10;10.05;;;;;;;27.12;46.54;100976.64;1773792;79;21073;-67
2021/08/12 08:49:08;;;;;;;25.05;13.88;;;;;;;27.19;46.64;100993.39;1775117;79;21763;-68
2021/08/12 08:51:37;;;;;;;16.40;9.25;;;;;;;27.16;46.68;100984.44;1768004;79;21118;-68
2021/08/12 08:54:06;;;;;;;30.15;21.07;;;;;;;27.17;46.54;101016.93;1770583;79;20948;-68
2021/08/12 08:56:33;;;;;;;14.03;8.45;;;;;;;27.17;45.66;101008.18;1734077;81;21348;-68
2021/08/12 08:59:01;;;;;;;29.32;6.45;;;;;;;27.13;46.01;100973.75;1775895;79;22359;-68
2021/08/12 09:01:28;;;;;;;25.08;11.28;;;;;;;27.18;46.58;100981.52;1777814;79;21007;-68
2021/08/12 09:03:54;;;;;;;19.00;10.35;;;;;;;27.30;46.22;100989.02;1743612;81;21316;-68
2021/08/12 09:06:21;;;;;;;19.32;7.45;;;;;;;27.41;45.34;100988.78;1735869;81;21058;-67
2021/08/12 09:08:49;;;;;;;14.80;5.17;;;;;;;27.48;45.21;100971.62;1746301;81;21107;-68
2021/08/12 09:11:18;;;;;;;7.92;4.00;;;;;;;27.48;43.19;100988.14;1745477;81;21064;-68
2021/08/12 09:13:47;;;;;;;6.72;4.10;;;;;;;27.41;42.69;100991.53;1740082;81;21112;-67
2021/08/12 09:16:36;;;;;;;25.27;14.43;;;;;;;27.26;44.00;101006.87;1736418;81;21100;-66
2021/08/12 09:19:20;;;;;;;28.90;21.42;;;;;;;27.21;41.67;101028.00;1737052;81;21075;-66
2021/08/12 09:21:48;;;;;;;15.48;7.87;;;;;;;27.24;40.91;101010.30;1740244;81;21015;-66
2021/08/12 09:24:22;;;;;;;18.32;5.87;;;;;;;27.20;40.30;100996.01;1732271;81;22287;-67
2021/08/12 09:26:53;;;;;;;20.10;4.65;;;;;;;27.17;40.03;101015.06;1714787;81;21068;-67
2021/08/12 09:29:32;;;;;;;14.70;6.58;;;;;;;27.22;41.61;101002.22;1739835;81;22062;-68
2021/08/12 09:32:04;;;;;;;22.62;6.03;;;;;;;27.25;42.36;100994.13;1729131;81;21531;-68
2021/08/12 09:34:46;;;;;;;25.90;9.38;;;;;;;27.31;42.21;100981.98;1732651;81;21082;-68
2021/08/12 09:37:18;;;;;;;31.57;24.05;;;;;;;27.38;40.87;100995.98;1736386;81;20984;-66
2021/08/12 09:39:46;;;;;;;22.48;5.58;;;;;;;27.39;42.10;101043.63;1736448;81;21122;-68
2021/08/12 09:42:14;;;;;;;21.93;11.05;;;;;;;27.31;41.72;100989.39;1736729;81;21622;-68
2021/08/12 09:44:52;;;;;;;12.90;5.30;;;;;;;27.36;42.57;100993.03;1734825;81;21120;-67
2021/08/12 09:47:26;;;;;;;24.60;6.97;;;;;;;27.40;41.47;100996.69;1733833;81;21086;-61
2021/08/12 09:50:03;;;;;;;12.93;6.80;;;;;;;27.44;42.91;101013.23;1730873;81;21067;-60
2021/08/12 09:52:36;;;;;;;15.93;4.10;;;;;;;27.46;42.39;101018.07;1727686;81;21003;-60
2021/08/12 09:55:15;;;;;;;13.50;4.22;;;;;;;27.42;43.12;101024.92;1728672;81;22369;-60
2021/08/12 09:57:54;;;;;;;21.17;4.80;;;;;;;27.39;43.24;101045.01;1734918;81;21095;-59
2021/08/12 10:00:38;;;;;;;28.35;8.53;;;;;;;27.39;43.21;100995.46;1722604;81;21102;-59
2021/08/12 10:03:26;;;;;;;12.53;7.10;;;;;;;27.36;42.76;101022.81;1710566;81;21122;-59
2021/08/12 10:05:56;;;;;;;33.40;10.58;;;;;;;27.34;41.82;101008.34;1748336;79;21062;-61
2021/08/12 10:08:34;;;;;;;27.98;10.03;;;;;;;27.37;42.54;101008.52;1762179;79;21657;-60
2021/08/12 10:11:25;;;;;;;20.05;10.45;;;;;;;27.45;43.30;101006.70;1769270;79;21058;-62
2021/08/12 10:13:58;;;;;;;9.38;6.58;;;;;;;27.55;43.05;101014.06;1772525;79;22081;-61
2021/08/12 10:16:26;;;;;;;12.23;6.10;;;;;;;27.58;43.00;101010.98;1767832;79;21055;-61
2021/08/12 10:18:55;;;;;;;9.75;4.92;;;;;;;27.61;42.67;101007.91;1768130;79;21054;-60
2021/08/12 10:21:24;;;;;;;12.63;4.55;;;;;;;27.61;42.94;101021.67;1769250;79;21180;-60
2021/08/12 10:23:58;;;;;;;11.35;6.45;;;;;;;27.62;43.03;101018.39;1770305;79;21131;-61
2021/08/12 10:26:27;;;;;;;18.77;12.53;;;;;;;27.60;41.89;101018.57;1764633;79;21087;-61
2021/08/12 10:29:18;;;;;;;14.15;5.47;;;;;;;27.58;41.72;101014.59;1761343;80;21068;-61
2021/08/12 10:31:45;;;;;;;33.73;21.52;;;;;;;27.56;41.09;101023.52;1770340;80;21035;-60
2021/08/12 10:34:13;;;;;;;9.83;6.17;;;;;;;27.48;40.72;101019.80;1771069;80;20967;-60
2021/08/12 10:36:40;;;;;;;12.75;3.98;;;;;;;27.47;40.86;101042.35;1765300;80;21035;-60
2021/08/12 10:39:07;;;;;;;20.45;13.80;;;;;;;27.45;41.31;101038.37;1756885;80;21008;-60
2021/08/12 10:41:35;;;;;;;12.93;5.37;;;;;;;27.44;42.27;101031.13;1766096;79;21139;-66
2021/08/12 10:44:05;;;;;;;39.92;29.87;;;;;;;27.54;42.05;101056.39;1773012;80;21019;-65
2021/08/12 10:46:41;;;;;;;14.70;6.65;;;;;;;27.58;42.70;101026.98;1769848;79;21765;-66
2021/08/12 10:49:34;;;;;;;18.07;7.87;;;;;;;27.59;42.32;101038.34;1769230;79;21068;-60
2021/08/12 10:52:10;;;;;;;20.02;10.98;;;;;;;27.53;42.05;101029.87;1777123;80;21424;-60
2021/08/12 10:54:40;;;;;;;21.05;4.80;;;;;;;27.46;42.01;101049.73;1773236;79;21170;-59
2021/08/12 10:57:20;;;;;;;14.95;4.10;;;;;;;27.46;41.50;101040.63;1779007;80;21099;-61
2021/08/12 10:59:48;;;;;;;13.43;4.15;;;;;;;27.46;41.43;101026.86;1774482;79;21076;-66
2021/08/12 11:02:32;;;;;;;20.95;5.12;;;;;;;27.44;41.69;101044.05;1776360;80;21055;-65
2021/08/12 11:05:07;;;;;;;20.27;8.93;;;;;;;27.39;40.79;101033.50;1760443;80;21089;-65
2021/08/12 11:09:57;;;;;;;14.73;7.97;;;;;;;27.48;39.76;101063.35;1811729;78;22719;-65
2021/08/12 11:12:24;;;;;;;9.58;5.53;;;;;;;27.51;39.53;101038.75;1786925;78;21084;-61
2021/08/12 11:14:53;;;;;;;6.90;3.83;;;;;;;27.54;38.52;101045.38;1743796;79;21047;-60
2021/08/12 11:17:22;;;;;;;16.57;6.90;;;;;;;27.58;37.64;101056.42;1788563;78;20969;-60
2021/08/12 11:19:51;;;;;;;7.45;3.45;;;;;;;27.61;38.13;101024.43;1791686;78;21015;-61
2021/08/12 11:22:28;;;;;;;18.32;9.10;;;;;;;27.69;38.08;101031.38;1790422;78;21770;-61
2021/08/12 11:24:57;;;;;;;15.18;11.70;;;;;;;27.74;38.04;101067.59;1792094;78;21003;-60
2021/08/12 11:27:35;;;;;;;25.80;16.05;;;;;;;27.70;38.12;101038.61;1788070;79;21085;-59
2021/08/12 11:30:38;;;;;;;13.08;8.73;;;;;;;27.61;37.14;101038.20;1792486;78;21028;-60
2021/08/12 11:33:26;;;;;;;21.75;14.75;;;;;;;27.63;37.85;101036.15;1789059;78;20917;-59
2021/08/12 11:36:12;;;;;;;17.85;13.20;;;;;;;27.66;38.42;101039.11;1790913;78;21050;-61
2021/08/12 11:38:42;;;;;;;8.00;3.27;;;;;;;27.66;38.74;101023.44;1790315;79;21079;-60